Melaka, Malaysia
Current Conditions -  °F | °C
As of 4:00 AM on Sunday 26 Oct 2014 (Local Time) from WMKM Reporting Station
Broken Clouds Broken Clouds  
Wind Chill: 79°   Ceiling: 27000
Heat Index: 82°   Visibility: 6mi
Dew Point: 75°   Wind: 1mph
Humidity: 89%   Direction: 360°N
Pressure: 29.85"   Gusts: NA
Location:  2.21°N, 102.25°E
Report Text: WMKM 252000Z 36001KT 9999 FEW017CB SCT028 BKN270 26/24 Q1011
Loading
Personal Weather Stations






























Interactive Weather Map
Tropical Storm Tracking
New forecast layout! Learn more

10-Day Weather Forecast

Advertisements
Track Severe Weather on mobile